Time;durP1;ratioP1;P1;durP2;ratioP2;P2;SDS_P1;SDS_P2;PMS_P1;PMS_P2;Temp;Humidity;BMP_temperature;BMP_pressure;BME280_temperature;BME280_humidity;BME280_pressure;Samples;Min_cycle;Max_cycle;Signal;HPM_P1;HPM_P2
2023/03/20 00:01:33;;;;;;;;;;;11.10;80.90;;;;;;5092664;28;20286;-30
2023/03/20 00:03:59;;;;;;;;;;;11.00;80.80;;;;;;5093110;28;19994;-39
2023/03/20 00:06:25;;;;;;;;;;;11.00;80.80;;;;;;5092586;28;20147;-30
2023/03/20 00:08:51;;;;;;;;;;;11.00;80.80;;;;;;5091269;28;20322;-30
2023/03/20 00:11:29;;;;;;;;;;;11.00;80.90;;;;;;5092585;28;19966;-32
2023/03/20 00:13:56;;;;;;;;;;;10.90;80.80;;;;;;5092587;28;20008;-29
2023/03/20 00:16:22;;;;;;;;;;;10.90;81.00;;;;;;5092638;28;19916;-30
2023/03/20 00:18:48;;;;;;;;;;;10.90;81.00;;;;;;5092752;28;20364;-33
2023/03/20 00:21:17;;;;;;;;;;;10.80;81.00;;;;;;5092584;28;19926;-30
2023/03/20 00:23:42;;;;;;;;;;;10.80;81.10;;;;;;5092559;28;19919;-31
2023/03/20 00:26:11;;;;;;;;;;;10.70;81.20;;;;;;5091732;28;19920;-29
2023/03/20 00:28:39;;;;;;;;;;;10.60;81.30;;;;;;5092644;28;19947;-33
2023/03/20 00:31:17;;;;;;;;;;;10.60;81.50;;;;;;5092417;28;19912;-36
2023/03/20 00:33:44;;;;;;;;;;;10.60;81.60;;;;;;5092411;28;19916;-33
2023/03/20 00:36:09;;;;;;;;;;;10.60;81.60;;;;;;5092594;28;19966;-30
2023/03/20 00:38:35;;;;;;;;;;;10.60;81.70;;;;;;5092445;28;19928;-29
2023/03/20 00:41:00;;;;;;;;;;;10.60;81.60;;;;;;5090618;28;19927;-30
2023/03/20 00:43:26;;;;;;;;;;;10.60;81.60;;;;;;5090769;28;19951;-31
2023/03/20 00:45:52;;;;;;;;;;;10.60;81.70;;;;;;5092085;28;19923;-27
2023/03/20 00:48:17;;;;;;;;;;;10.50;81.60;;;;;;5091849;28;19913;-29
2023/03/20 00:50:43;;;;;;;;;;;10.50;81.70;;;;;;5092083;28;19912;-29
2023/03/20 00:53:10;;;;;;;;;;;10.50;81.70;;;;;;5092005;28;20344;-32
2023/03/20 00:55:36;;;;;;;;;;;10.50;81.70;;;;;;5092129;28;19916;-33
2023/03/20 00:58:02;;;;;;;;;;;10.50;81.70;;;;;;5091850;28;19999;-28
2023/03/20 01:00:41;;;;;;;;;;;10.50;81.70;;;;;;5091733;28;19941;-33
2023/03/20 01:03:14;;;;;;;;;;;10.50;81.60;;;;;;5091988;28;19963;-29
2023/03/20 01:05:40;;;;;;;;;;;10.50;81.50;;;;;;5091835;28;19920;-32
2023/03/20 01:08:12;;;;;;;;;;;10.50;81.50;;;;;;5091835;28;20393;-31
2023/03/20 01:10:37;;;;;;;;;;;10.50;81.50;;;;;;5091691;28;19999;-32
2023/03/20 01:13:05;;;;;;;;;;;10.50;81.50;;;;;;5091846;28;20011;-36
2023/03/20 01:15:32;;;;;;;;;;;10.50;81.40;;;;;;5091669;28;19938;-30
2023/03/20 01:17:57;;;;;;;;;;;10.50;81.40;;;;;;5091568;28;19918;-32
2023/03/20 01:20:25;;;;;;;;;;;10.50;81.40;;;;;;5091504;28;20007;-30
2023/03/20 01:22:50;;;;;;;;;;;10.60;81.50;;;;;;5091880;28;19985;-32
2023/03/20 01:25:16;;;;;;;;;;;10.50;81.50;;;;;;5091475;28;20360;-32
2023/03/20 01:27:51;;;;;;;;;;;10.60;81.60;;;;;;5091364;28;19919;-31
2023/03/20 01:30:21;;;;;;;;;;;10.50;81.50;;;;;;5091438;28;20349;-30
2023/03/20 01:32:47;;;;;;;;;;;10.50;81.60;;;;;;5091265;28;19920;-34
2023/03/20 01:35:13;;;;;;;;;;;10.50;81.70;;;;;;5091369;28;19919;-39
2023/03/20 01:37:39;;;;;;;;;;;10.50;81.70;;;;;;5094218;28;20010;-29
2023/03/20 01:40:12;;;;;;;;;;;10.50;81.80;;;;;;5095414;28;19916;-33
2023/03/20 01:42:37;;;;;;;;;;;10.50;81.80;;;;;;5095889;28;19934;-29
2023/03/20 01:45:12;;;;;;;;;;;10.40;81.90;;;;;;5095629;28;19971;-34
2023/03/20 01:47:37;;;;;;;;;;;10.40;81.90;;;;;;5095528;28;20341;-31
2023/03/20 01:50:12;;;;;;;;;;;10.30;81.90;;;;;;5095620;28;19919;-32
2023/03/20 01:52:37;;;;;;;;;;;10.30;81.90;;;;;;5095375;28;19916;-32
2023/03/20 01:55:03;;;;;;;;;;;10.30;82.00;;;;;;5095690;28;20328;-34
2023/03/20 01:57:28;;;;;;;;;;;10.30;81.90;;;;;;5095723;28;20010;-28
2023/03/20 02:00:00;;;;;;;;;;;10.30;82.60;;;;;;5095114;28;19916;-30
2023/03/20 02:02:28;;;;;;;;;;;10.20;82.00;;;;;;5095093;28;20240;-30
2023/03/20 02:04:55;;;;;;;;;;;10.20;82.00;;;;;;5095110;28;19941;-29
2023/03/20 02:07:22;;;;;;;;;;;10.20;82.10;;;;;;5095236;28;19916;-30
2023/03/20 02:09:48;;;;;;;;;;;10.20;82.20;;;;;;5094957;28;20418;-33
2023/03/20 02:12:14;;;;;;;;;;;10.20;82.20;;;;;;5093771;28;20363;-31
2023/03/20 02:14:40;;;;;;;;;;;10.20;82.20;;;;;;5095109;28;19912;-28
2023/03/20 02:17:07;;;;;;;;;;;10.20;82.10;;;;;;5095096;28;19922;-33
2023/03/20 02:19:49;;;;;;;;;;;10.20;82.10;;;;;;5094899;28;19912;-27
2023/03/20 02:22:36;;;;;;;;;;;10.20;82.00;;;;;;5094947;28;19962;-29
2023/03/20 02:25:02;;;;;;;;;;;10.20;81.90;;;;;;5094883;28;19912;-29
2023/03/20 02:27:39;;;;;;;;;;;10.10;81.90;;;;;;5094824;28;19935;-30
2023/03/20 02:30:13;;;;;;;;;;;10.20;81.80;;;;;;5095073;28;19970;-29
2023/03/20 02:32:45;;;;;;;;;;;10.20;81.70;;;;;;5094623;28;19920;-30
2023/03/20 02:35:29;;;;;;;;;;;10.20;81.50;;;;;;5094819;28;19916;-26
2023/03/20 02:38:11;;;;;;;;;;;10.20;81.30;;;;;;5094883;28;19912;-30
2023/03/20 02:40:52;;;;;;;;;;;10.20;81.20;;;;;;5093495;28;19923;-29
2023/03/20 02:43:17;;;;;;;;;;;10.20;80.90;;;;;;5095109;28;20462;-30
2023/03/20 02:46:03;;;;;;;;;;;10.20;80.80;;;;;;5094872;28;19912;-30
2023/03/20 02:48:43;;;;;;;;;;;10.20;80.60;;;;;;5093881;28;20426;-31
2023/03/20 02:51:11;;;;;;;;;;;10.10;80.40;;;;;;5094959;28;19912;-29
2023/03/20 02:53:41;;;;;;;;;;;10.10;80.40;;;;;;5094875;28;19912;-29
2023/03/20 02:56:10;;;;;;;;;;;10.20;80.10;;;;;;5094899;28;19957;-33
2023/03/20 02:58:45;;;;;;;;;;;10.20;80.10;;;;;;5094631;28;19939;-30
2023/03/20 03:01:14;;;;;;;;;;;10.20;79.80;;;;;;5094552;28;20295;-30
2023/03/20 03:03:46;;;;;;;;;;;10.20;79.50;;;;;;5094776;28;19947;-30
2023/03/20 03:06:22;;;;;;;;;;;10.20;79.50;;;;;;5094697;28;19920;-28
2023/03/20 03:08:54;;;;;;;;;;;10.20;79.20;;;;;;5094613;28;19943;-34
2023/03/20 03:11:20;;;;;;;;;;;10.20;79.10;;;;;;5094527;28;19951;-29
2023/03/20 03:13:47;;;;;;;;;;;10.10;79.00;;;;;;5094062;28;19947;-29
2023/03/20 03:16:16;;;;;;;;;;;10.20;79.00;;;;;;5092574;28;19912;-32
2023/03/20 03:18:42;;;;;;;;;;;10.20;79.00;;;;;;5094067;28;19912;-30
2023/03/20 03:21:09;;;;;;;;;;;10.20;78.90;;;;;;5093855;28;19916;-31
2023/03/20 03:23:39;;;;;;;;;;;10.20;78.80;;;;;;5094073;28;19935;-29
2023/03/20 03:26:05;;;;;;;;;;;10.20;78.80;;;;;;5094175;28;19966;-26
2023/03/20 03:28:36;;;;;;;;;;;10.20;78.70;;;;;;5094269;28;19927;-31
2023/03/20 03:31:07;;;;;;;;;;;10.10;78.60;;;;;;5093532;28;19939;-31
2023/03/20 03:33:34;;;;;;;;;;;10.10;78.80;;;;;;5093661;28;19939;-31
2023/03/20 03:36:21;;;;;;;;;;;10.10;78.90;;;;;;5094100;28;20264;-32
2023/03/20 03:38:52;;;;;;;;;;;10.10;78.90;;;;;;5093652;28;19912;-33
2023/03/20 03:41:21;;;;;;;;;;;10.10;79.00;;;;;;5093819;28;19916;-33
2023/03/20 03:43:55;;;;;;;;;;;10.10;79.00;;;;;;5093753;28;20436;-32
2023/03/20 03:46:42;;;;;;;;;;;10.10;79.00;;;;;;5093532;28;19923;-30
2023/03/20 03:49:11;;;;;;;;;;;10.10;79.00;;;;;;5093864;28;20022;-31
2023/03/20 03:51:38;;;;;;;;;;;10.10;79.00;;;;;;5093359;28;19919;-28
2023/03/20 03:54:16;;;;;;;;;;;10.10;79.00;;;;;;5093647;28;19951;-35
2023/03/20 03:56:43;;;;;;;;;;;10.10;79.10;;;;;;5093593;28;19912;-27
2023/03/20 03:59:11;;;;;;;;;;;10.10;79.00;;;;;;5093413;28;20401;-28
2023/03/20 04:01:38;;;;;;;;;;;10.00;79.00;;;;;;5093214;28;19920;-27
2023/03/20 04:04:05;;;;;;;;;;;10.00;79.00;;;;;;5093226;28;19995;-28
2023/03/20 04:06:31;;;;;;;;;;;10.00;79.20;;;;;;5093117;28;20026;-33
2023/03/20 04:08:57;;;;;;;;;;;10.00;79.10;;;;;;5092900;28;19912;-29
2023/03/20 04:11:23;;;;;;;;;;;9.90;79.10;;;;;;5093056;28;19912;-28
2023/03/20 04:13:49;;;;;;;;;;;9.90;79.00;;;;;;5093003;28;19999;-30
2023/03/20 04:16:16;;;;;;;;;;;9.80;79.20;;;;;;5092845;28;19970;-34
2023/03/20 04:18:41;;;;;;;;;;;9.80;79.30;;;;;;5092821;28;19911;-28
2023/03/20 04:21:08;;;;;;;;;;;9.70;79.30;;;;;;5092846;28;19927;-34
2023/03/20 04:23:33;;;;;;;;;;;9.70;79.30;;;;;;5092748;28;20006;-30
2023/03/20 04:25:59;;;;;;;;;;;9.60;79.30;;;;;;5092722;28;19920;-31
2023/03/20 04:28:24;;;;;;;;;;;9.60;79.50;;;;;;5092737;28;20261;-32
2023/03/20 04:30:53;;;;;;;;;;;9.60;79.60;;;;;;5090847;28;20008;-30
2023/03/20 04:33:19;;;;;;;;;;;9.60;79.60;;;;;;5092688;28;19916;-30
2023/03/20 04:35:44;;;;;;;;;;;9.60;79.60;;;;;;5092502;28;19919;-33
2023/03/20 04:38:10;;;;;;;;;;;9.60;79.60;;;;;;5092438;28;19912;-27
2023/03/20 04:40:36;;;;;;;;;;;9.60;79.60;;;;;;5092585;28;20310;-33
2023/03/20 04:43:01;;;;;;;;;;;9.50;79.60;;;;;;5092540;28;19912;-30
2023/03/20 04:45:27;;;;;;;;;;;9.50;79.60;;;;;;5092360;28;20329;-29
2023/03/20 04:47:52;;;;;;;;;;;9.50;79.80;;;;;;5090789;28;20426;-29
2023/03/20 04:50:18;;;;;;;;;;;9.40;79.80;;;;;;5092217;28;19965;-30
2023/03/20 04:52:43;;;;;;;;;;;9.40;79.80;;;;;;5092434;28;19912;-30
2023/03/20 04:55:09;;;;;;;;;;;9.40;79.90;;;;;;5092253;28;19955;-34
2023/03/20 04:57:35;;;;;;;;;;;9.40;79.90;;;;;;5092235;28;20376;-31
2023/03/20 05:00:00;;;;;;;;;;;9.50;79.90;;;;;;5092217;28;19974;-33
2023/03/20 05:02:26;;;;;;;;;;;9.40;79.80;;;;;;5091894;28;19912;-32
2023/03/20 05:04:51;;;;;;;;;;;9.40;79.90;;;;;;5092537;28;19923;-29
2023/03/20 05:07:17;;;;;;;;;;;9.40;79.90;;;;;;5091882;28;20232;-30
2023/03/20 05:09:42;;;;;;;;;;;9.40;79.90;;;;;;5092001;28;20348;-31
2023/03/20 05:12:08;;;;;;;;;;;9.40;80.00;;;;;;5089820;28;19912;-32
2023/03/20 05:14:34;;;;;;;;;;;9.30;80.50;;;;;;5091679;28;19947;-29
2023/03/20 05:17:00;;;;;;;;;;;9.30;80.00;;;;;;5091880;28;19916;-30
2023/03/20 05:19:26;;;;;;;;;;;9.30;80.00;;;;;;5092071;28;20121;-30
2023/03/20 05:21:51;;;;;;;;;;;9.30;80.00;;;;;;5091915;28;19916;-31
2023/03/20 05:24:17;;;;;;;;;;;9.30;80.00;;;;;;5091984;28;19923;-31
2023/03/20 05:26:42;;;;;;;;;;;9.30;80.00;;;;;;5092242;28;19912;-29
2023/03/20 05:29:08;;;;;;;;;;;9.30;80.00;;;;;;5091690;28;19912;-31
2023/03/20 05:31:33;;;;;;;;;;;9.30;80.00;;;;;;5091790;28;20302;-33
2023/03/20 05:33:59;;;;;;;;;;;9.30;79.90;;;;;;5091677;28;19912;-28
2023/03/20 05:36:24;;;;;;;;;;;9.30;79.90;;;;;;5091729;28;20007;-28
2023/03/20 05:38:50;;;;;;;;;;;9.30;79.80;;;;;;5092083;28;20033;-30
2023/03/20 05:41:16;;;;;;;;;;;9.30;79.90;;;;;;5092092;28;19946;-37
2023/03/20 05:43:41;;;;;;;;;;;9.30;79.80;;;;;;5091821;28;20316;-32
2023/03/20 05:46:07;;;;;;;;;;;9.30;79.80;;;;;;5091661;28;19912;-27
2023/03/20 05:48:32;;;;;;;;;;;9.20;79.20;;;;;;5091530;28;19954;-34
2023/03/20 05:50:58;;;;;;;;;;;9.30;79.80;;;;;;5091705;28;20069;-31
2023/03/20 05:53:23;;;;;;;;;;;9.20;79.70;;;;;;5091532;28;19912;-31
2023/03/20 05:55:49;;;;;;;;;;;9.30;79.80;;;;;;5091895;28;19912;-29
2023/03/20 05:58:14;;;;;;;;;;;9.30;79.70;;;;;;5091553;28;19920;-31
2023/03/20 06:00:40;;;;;;;;;;;9.30;79.70;;;;;;5091384;28;20566;-29
2023/03/20 06:03:08;;;;;;;;;;;9.30;79.60;;;;;;5091596;28;19912;-32
2023/03/20 06:05:34;;;;;;;;;;;9.30;79.60;;;;;;5091576;28;19919;-30
2023/03/20 06:08:00;;;;;;;;;;;9.30;79.60;;;;;;5091454;28;20279;-31
2023/03/20 06:10:26;;;;;;;;;;;9.30;79.50;;;;;;5090255;28;19912;-32
2023/03/20 06:12:52;;;;;;;;;;;9.40;79.50;;;;;;5091418;28;19978;-37
2023/03/20 06:15:18;;;;;;;;;;;9.40;79.40;;;;;;5089939;28;19916;-31
2023/03/20 06:17:43;;;;;;;;;;;9.40;79.50;;;;;;5091616;28;19951;-30
2023/03/20 06:20:09;;;;;;;;;;;9.40;79.40;;;;;;5091773;28;19923;-31
2023/03/20 06:22:34;;;;;;;;;;;9.40;79.40;;;;;;5092413;28;20352;-30
2023/03/20 06:25:00;;;;;;;;;;;9.40;79.40;;;;;;5095465;28;19912;-32
2023/03/20 06:27:26;;;;;;;;;;;9.40;79.30;;;;;;5095059;28;20398;-31
2023/03/20 06:29:51;;;;;;;;;;;9.40;79.20;;;;;;5095023;28;19912;-30
2023/03/20 06:32:17;;;;;;;;;;;9.50;79.10;;;;;;5094820;28;19921;-33
2023/03/20 06:34:42;;;;;;;;;;;9.50;79.00;;;;;;5094932;28;19912;-36
2023/03/20 06:37:08;;;;;;;;;;;9.50;79.00;;;;;;5094968;28;19912;-32
2023/03/20 06:39:33;;;;;;;;;;;9.50;78.90;;;;;;5094713;28;19920;-29
2023/03/20 06:41:59;;;;;;;;;;;9.60;78.90;;;;;;5094807;28;19912;-30
2023/03/20 06:44:25;;;;;;;;;;;9.60;79.40;;;;;;5094798;28;19912;-29
2023/03/20 06:46:51;;;;;;;;;;;9.50;78.70;;;;;;5094761;28;20446;-28
2023/03/20 06:49:16;;;;;;;;;;;9.60;78.80;;;;;;5094680;28;19912;-33
2023/03/20 06:51:42;;;;;;;;;;;9.60;78.70;;;;;;5094689;28;20287;-31
2023/03/20 06:54:07;;;;;;;;;;;9.60;78.70;;;;;;5094792;28;20425;-29
2023/03/20 06:56:33;;;;;;;;;;;9.50;78.60;;;;;;5094512;28;19932;-28
2023/03/20 06:58:58;;;;;;;;;;;9.50;78.60;;;;;;5094371;28;19935;-27
2023/03/20 07:01:24;;;;;;;;;;;9.50;78.70;;;;;;5094252;28;19922;-30
2023/03/20 07:03:50;;;;;;;;;;;9.50;78.70;;;;;;5094364;28;19960;-30
2023/03/20 07:06:17;;;;;;;;;;;9.50;78.70;;;;;;5094437;28;20341;-28
2023/03/20 07:08:43;;;;;;;;;;;9.50;78.70;;;;;;5093891;28;19999;-28
2023/03/20 07:11:09;;;;;;;;;;;9.50;78.70;;;;;;5093790;28;19993;-29
2023/03/20 07:13:34;;;;;;;;;;;9.60;78.70;;;;;;5093917;28;20413;-27
2023/03/20 07:16:01;;;;;;;;;;;9.60;78.60;;;;;;5094067;28;19912;-31
2023/03/20 07:18:26;;;;;;;;;;;9.60;78.60;;;;;;5094619;28;20015;-30
2023/03/20 07:20:52;;;;;;;;;;;9.60;78.60;;;;;;5092651;28;20398;-31
2023/03/20 07:23:18;;;;;;;;;;;9.60;78.60;;;;;;5094031;28;19948;-32
2023/03/20 07:25:44;;;;;;;;;;;9.60;78.50;;;;;;5094172;28;19912;-30
2023/03/20 07:28:10;;;;;;;;;;;9.60;78.40;;;;;;5094055;28;19912;-37
2023/03/20 07:30:36;;;;;;;;;;;9.70;78.40;;;;;;5093920;28;20211;-30
2023/03/20 07:33:01;;;;;;;;;;;9.80;78.40;;;;;;5093881;28;19920;-31
2023/03/20 07:35:27;;;;;;;;;;;9.80;78.20;;;;;;5093401;28;20053;-29
2023/03/20 07:37:52;;;;;;;;;;;9.80;78.20;;;;;;5094057;28;20372;-30
2023/03/20 07:40:18;;;;;;;;;;;9.90;78.10;;;;;;5093771;28;19981;-30
2023/03/20 07:42:43;;;;;;;;;;;9.80;78.10;;;;;;5093868;28;19930;-29
2023/03/20 07:45:09;;;;;;;;;;;9.80;78.10;;;;;;5093711;28;19912;-30
2023/03/20 07:47:35;;;;;;;;;;;9.90;78.00;;;;;;5093706;28;19914;-31
2023/03/20 07:50:00;;;;;;;;;;;9.90;78.10;;;;;;5093721;28;19908;-31
2023/03/20 07:52:26;;;;;;;;;;;9.80;77.90;;;;;;5093399;28;19951;-30
2023/03/20 07:54:52;;;;;;;;;;;9.90;78.00;;;;;;5093660;28;19908;-33
2023/03/20 07:57:17;;;;;;;;;;;9.90;77.90;;;;;;5093439;28;20364;-32
2023/03/20 07:59:43;;;;;;;;;;;9.90;77.90;;;;;;5093375;28;19962;-32
2023/03/20 08:02:15;;;;;;;;;;;9.80;77.90;;;;;;5093450;28;19908;-35
2023/03/20 08:04:41;;;;;;;;;;;9.90;77.80;;;;;;5093510;28;19916;-34
2023/03/20 08:07:07;;;;;;;;;;;9.90;77.90;;;;;;5093439;28;19908;-36
2023/03/20 08:09:32;;;;;;;;;;;9.90;77.70;;;;;;5093337;28;19915;-31
2023/03/20 08:11:58;;;;;;;;;;;9.80;77.70;;;;;;5093464;28;19908;-32
2023/03/20 08:14:23;;;;;;;;;;;9.80;77.50;;;;;;5093298;28;20241;-33
2023/03/20 08:16:49;;;;;;;;;;;9.80;77.60;;;;;;5093208;28;19908;-30
2023/03/20 08:19:14;;;;;;;;;;;9.80;77.60;;;;;;5093087;28;19912;-30
2023/03/20 08:21:40;;;;;;;;;;;9.90;77.70;;;;;;5092893;28;19942;-31
2023/03/20 08:24:05;;;;;;;;;;;9.90;77.60;;;;;;5092941;28;19909;-28
2023/03/20 08:26:31;;;;;;;;;;;10.00;77.60;;;;;;5093335;28;20379;-32
2023/03/20 08:28:58;;;;;;;;;;;10.00;77.50;;;;;;5093061;28;19931;-31
2023/03/20 08:31:23;;;;;;;;;;;10.00;77.50;;;;;;5093041;28;20337;-29
2023/03/20 08:33:49;;;;;;;;;;;10.00;77.30;;;;;;5093061;28;19999;-32
2023/03/20 08:36:14;;;;;;;;;;;10.00;77.30;;;;;;5091392;28;19908;-33
2023/03/20 08:38:40;;;;;;;;;;;10.00;77.40;;;;;;5092801;28;19915;-29
2023/03/20 08:41:06;;;;;;;;;;;10.00;77.30;;;;;;5092689;28;20007;-30
2023/03/20 08:43:32;;;;;;;;;;;10.00;77.20;;;;;;5092767;28;19947;-34
2023/03/20 08:45:57;;;;;;;;;;;10.00;77.00;;;;;;5092176;28;19908;-28
2023/03/20 08:48:23;;;;;;;;;;;10.00;77.00;;;;;;5092203;28;19914;-30
2023/03/20 08:50:48;;;;;;;;;;;10.00;76.90;;;;;;5092678;28;20336;-29
2023/03/20 08:53:14;;;;;;;;;;;10.00;76.80;;;;;;5092560;28;19962;-30
2023/03/20 08:55:40;;;;;;;;;;;10.00;76.80;;;;;;5091052;28;19950;-30
2023/03/20 08:58:05;;;;;;;;;;;10.10;76.80;;;;;;5091463;28;19909;-32
2023/03/20 09:00:31;;;;;;;;;;;10.20;76.90;;;;;;5092600;28;20252;-30
2023/03/20 09:02:56;;;;;;;;;;;10.20;76.60;;;;;;5091073;28;19909;-28
2023/03/20 09:05:22;;;;;;;;;;;10.20;76.30;;;;;;5092336;28;19950;-33
2023/03/20 09:07:48;;;;;;;;;;;10.20;76.20;;;;;;5092335;28;19908;-30
2023/03/20 09:10:13;;;;;;;;;;;10.20;76.20;;;;;;5092146;28;20003;-29
2023/03/20 09:12:39;;;;;;;;;;;10.20;76.00;;;;;;5092583;28;20030;-31
2023/03/20 09:15:05;;;;;;;;;;;10.30;75.70;;;;;;5092456;28;19914;-27
2023/03/20 09:17:31;;;;;;;;;;;10.30;75.80;;;;;;5092292;28;19970;-32
2023/03/20 09:19:57;;;;;;;;;;;10.40;75.80;;;;;;5092026;28;20383;-31
2023/03/20 09:22:22;;;;;;;;;;;10.50;75.70;;;;;;5092207;28;19908;-31
2023/03/20 09:24:48;;;;;;;;;;;10.50;75.30;;;;;;5092371;28;19973;-28
2023/03/20 09:27:13;;;;;;;;;;;10.60;75.00;;;;;;5092041;28;19912;-31
2023/03/20 09:29:39;;;;;;;;;;;10.60;74.90;;;;;;5092067;28;19936;-28
2023/03/20 09:32:05;;;;;;;;;;;10.70;74.50;;;;;;5090295;28;19970;-32
2023/03/20 09:34:34;;;;;;;;;;;10.70;74.50;;;;;;5092007;28;19957;-28
2023/03/20 09:37:01;;;;;;;;;;;10.70;74.30;;;;;;5091912;28;20318;-30
2023/03/20 09:39:27;;;;;;;;;;;10.80;73.90;;;;;;5091552;28;19915;-28
2023/03/20 09:41:53;;;;;;;;;;;10.80;73.70;;;;;;5091224;28;19912;-32
2023/03/20 09:44:21;;;;;;;;;;;10.90;73.40;;;;;;5091306;28;19908;-29
2023/03/20 09:47:08;;;;;;;;;;;10.80;72.90;;;;;;5091345;28;19908;-32
2023/03/20 09:49:43;;;;;;;;;;;10.80;73.10;;;;;;5091242;28;19909;-31
2023/03/20 09:52:21;;;;;;;;;;;10.90;73.20;;;;;;5091314;28;19915;-30
2023/03/20 09:54:49;;;;;;;;;;;10.90;72.90;;;;;;5091301;28;19909;-32
2023/03/20 09:57:28;;;;;;;;;;;10.90;72.60;;;;;;5091232;28;20260;-33
2023/03/20 09:59:56;;;;;;;;;;;10.90;72.60;;;;;;5095159;28;19912;-34
2023/03/20 10:02:35;;;;;;;;;;;10.80;72.20;;;;;;5095271;28;19919;-29
2023/03/20 10:05:02;;;;;;;;;;;10.70;72.80;;;;;;5095204;28;20342;-35
2023/03/20 10:07:27;;;;;;;;;;;10.60;73.40;;;;;;5095384;28;20402;-30
2023/03/20 10:09:53;;;;;;;;;;;10.60;73.60;;;;;;5095209;28;19909;-34
2023/03/20 10:12:19;;;;;;;;;;;10.60;74.90;;;;;;5094999;28;19908;-34
2023/03/20 10:14:59;;;;;;;;;;;10.60;74.50;;;;;;5095381;28;19968;-32
2023/03/20 10:17:41;;;;;;;;;;;10.70;74.80;;;;;;5095000;28;19915;-31
2023/03/20 10:20:12;;;;;;;;;;;10.80;75.70;;;;;;5095173;28;19952;-36
2023/03/20 10:22:44;;;;;;;;;;;10.90;75.30;;;;;;5095217;28;19915;-32
2023/03/20 10:25:15;;;;;;;;;;;11.00;75.20;;;;;;5094888;28;19986;-33
2023/03/20 10:27:54;;;;;;;;;;;11.00;75.00;;;;;;5094805;28;19919;-35
2023/03/20 10:30:36;;;;;;;;;;;11.10;75.30;;;;;;5094769;28;20330;-30
2023/03/20 10:33:02;;;;;;;;;;;11.20;75.20;;;;;;5094541;28;20303;-34
2023/03/20 10:35:32;;;;;;;;;;;11.30;75.20;;;;;;5094872;28;19980;-28
2023/03/20 10:38:23;;;;;;;;;;;11.30;75.00;;;;;;5094568;28;19930;-37
2023/03/20 10:40:49;;;;;;;;;;;11.30;74.90;;;;;;5094478;28;19916;-31
2023/03/20 10:43:23;;;;;;;;;;;11.30;75.00;;;;;;5093212;28;19908;-30
2023/03/20 10:45:55;;;;;;;;;;;11.30;74.90;;;;;;5093044;28;19916;-31
2023/03/20 10:48:39;;;;;;;;;;;11.30;74.80;;;;;;5094383;28;19973;-30
2023/03/20 10:51:09;;;;;;;;;;;11.30;74.90;;;;;;5094318;28;19947;-32
2023/03/20 10:53:42;;;;;;;;;;;11.30;74.60;;;;;;5094413;28;19908;-35
2023/03/20 10:56:26;;;;;;;;;;;11.30;74.90;;;;;;5094440;28;19947;-31
2023/03/20 10:58:56;;;;;;;;;;;11.40;74.90;;;;;;5094596;28;19965;-30
2023/03/20 11:01:21;;;;;;;;;;;11.40;74.60;;;;;;5094199;28;19923;-30
2023/03/20 11:03:47;;;;;;;;;;;11.50;74.50;;;;;;5094488;28;19908;-34
2023/03/20 11:06:27;;;;;;;;;;;11.50;74.40;;;;;;5094409;28;20002;-29
2023/03/20 11:08:53;;;;;;;;;;;11.60;74.20;;;;;;5093793;28;19908;-31
2023/03/20 11:11:23;;;;;;;;;;;11.60;73.90;;;;;;5093686;28;20003;-31
2023/03/20 11:13:49;;;;;;;;;;;11.60;73.30;;;;;;5094020;28;20325;-28
2023/03/20 11:16:18;;;;;;;;;;;11.50;73.70;;;;;;5093844;28;19954;-33
2023/03/20 11:18:44;;;;;;;;;;;11.50;73.80;;;;;;5093825;28;20002;-31
2023/03/20 11:21:18;;;;;;;;;;;11.50;74.00;;;;;;5093824;28;20015;-30
2023/03/20 11:23:44;;;;;;;;;;;11.50;74.10;;;;;;5093907;28;19955;-31
2023/03/20 11:26:15;;;;;;;;;;;11.50;74.20;;;;;;5093765;28;19914;-33
2023/03/20 11:28:41;;;;;;;;;;;11.50;74.20;;;;;;5094070;28;20341;-31
2023/03/20 11:31:07;;;;;;;;;;;11.40;74.10;;;;;;5092099;28;19927;-30
2023/03/20 11:33:35;;;;;;;;;;;11.40;74.30;;;;;;5092166;28;19957;-30
2023/03/20 11:36:00;;;;;;;;;;;11.40;74.30;;;;;;5093712;28;20189;-31
2023/03/20 11:38:28;;;;;;;;;;;11.30;73.70;;;;;;5093433;28;19908;-31
2023/03/20 11:40:54;;;;;;;;;;;11.30;74.00;;;;;;5093303;28;19932;-30
2023/03/20 11:43:23;;;;;;;;;;;11.30;74.30;;;;;;5093756;28;19908;-29
2023/03/20 11:45:53;;;;;;;;;;;11.30;74.50;;;;;;5093338;28;19920;-30
2023/03/20 11:48:22;;;;;;;;;;;11.40;74.60;;;;;;5093251;28;19908;-28
2023/03/20 11:50:55;;;;;;;;;;;11.50;74.30;;;;;;5093224;28;20364;-30
2023/03/20 11:53:47;;;;;;;;;;;11.60;74.30;;;;;;5093128;28;19908;-28
2023/03/20 11:56:14;;;;;;;;;;;11.70;74.00;;;;;;5076496;28;19908;-32
2023/03/20 11:58:54;;;;;;;;;;;11.70;73.70;;;;;;5091580;28;20003;-35
2023/03/20 12:01:21;;;;;;;;;;;11.70;73.20;;;;;;5092757;28;19988;-42
2023/03/20 12:04:01;;;;;;;;;;;11.70;73.00;;;;;;5093030;28;20003;-32
2023/03/20 12:06:36;;;;;;;;;;;11.60;73.20;;;;;;5093191;28;19915;-32
2023/03/20 12:09:04;;;;;;;;;;;11.70;73.20;;;;;;5092936;28;19912;-33
2023/03/20 12:11:42;;;;;;;;;;;11.60;73.40;;;;;;5092795;28;20394;-33
2023/03/20 12:14:13;;;;;;;;;;;11.60;73.20;;;;;;5092844;28;19947;-30
2023/03/20 12:16:40;;;;;;;;;;;11.60;73.30;;;;;;5092923;28;19908;-31
2023/03/20 12:19:11;;;;;;;;;;;11.60;73.40;;;;;;5093028;28;20377;-32
2023/03/20 12:21:39;;;;;;;;;;;11.60;73.30;;;;;;5092559;28;19912;-30
2023/03/20 12:24:11;;;;;;;;;;;11.60;73.70;;;;;;5092657;28;19908;-30
2023/03/20 12:26:41;;;;;;;;;;;11.60;73.70;;;;;;5092621;28;19908;-27
2023/03/20 12:29:16;;;;;;;;;;;11.50;73.60;;;;;;5092579;28;19908;-28
2023/03/20 12:31:42;;;;;;;;;;;11.50;73.60;;;;;;5092369;28;20019;-32
2023/03/20 12:34:20;;;;;;;;;;;11.50;73.60;;;;;;5092546;28;19939;-28
2023/03/20 12:36:47;;;;;;;;;;;11.50;73.90;;;;;;5092406;28;20359;-28
2023/03/20 12:39:18;;;;;;;;;;;11.50;74.10;;;;;;5090881;28;20010;-31
2023/03/20 12:42:10;;;;;;;;;;;11.60;74.20;;;;;;5092116;28;19912;-29
2023/03/20 12:44:54;;;;;;;;;;;11.60;74.20;;;;;;5076028;28;19908;-29
2023/03/20 12:47:39;;;;;;;;;;;11.70;74.30;;;;;;5092377;28;19934;-30
2023/03/20 12:50:05;;;;;;;;;;;11.70;74.30;;;;;;5092112;28;19908;-33
2023/03/20 12:52:49;;;;;;;;;;;11.70;74.30;;;;;;5090760;28;19915;-28
2023/03/20 12:55:28;;;;;;;;;;;11.70;74.50;;;;;;5091930;28;19908;-30
2023/03/20 12:58:00;;;;;;;;;;;11.70;74.70;;;;;;5091796;28;19908;-31
2023/03/20 13:00:34;;;;;;;;;;;11.70;74.80;;;;;;5091636;28;20377;-30
2023/03/20 13:03:20;;;;;;;;;;;11.70;74.80;;;;;;5091890;28;20006;-30
2023/03/20 13:05:48;;;;;;;;;;;11.80;75.10;;;;;;5091922;28;20287;-28
2023/03/20 13:08:32;;;;;;;;;;;11.80;75.10;;;;;;5092031;28;20282;-32
2023/03/20 13:11:04;;;;;;;;;;;11.90;75.30;;;;;;5092178;28;20275;-29
2023/03/20 13:13:42;;;;;;;;;;;11.90;75.30;;;;;;5091951;28;19908;-30
2023/03/20 13:16:08;;;;;;;;;;;11.90;75.20;;;;;;5090426;28;20359;-26
2023/03/20 13:18:45;;;;;;;;;;;12.00;75.30;;;;;;5092117;28;19923;-29
2023/03/20 13:21:17;;;;;;;;;;;11.90;75.30;;;;;;5091664;28;19920;-31
2023/03/20 13:23:59;;;;;;;;;;;11.90;75.50;;;;;;5091716;28;20287;-33
2023/03/20 13:26:30;;;;;;;;;;;11.90;75.70;;;;;;5091950;28;19908;-29
2023/03/20 13:28:59;;;;;;;;;;;11.80;75.70;;;;;;5091940;28;19912;-32
2023/03/20 13:31:43;;;;;;;;;;;11.80;76.00;;;;;;5091655;28;20295;-33
2023/03/20 13:34:18;;;;;;;;;;;11.70;76.00;;;;;;5089582;28;20447;-30
2023/03/20 13:37:03;;;;;;;;;;;11.60;76.20;;;;;;5091526;28;20220;-30
2023/03/20 13:39:42;;;;;;;;;;;11.60;76.50;;;;;;5091470;28;19909;-32
2023/03/20 13:42:10;;;;;;;;;;;11.50;76.70;;;;;;5091393;28;19912;-30
2023/03/20 13:44:36;;;;;;;;;;;11.40;76.70;;;;;;5091449;28;19908;-28
2023/03/20 13:47:09;;;;;;;;;;;11.40;76.90;;;;;;5091442;28;19915;-32
2023/03/20 13:49:42;;;;;;;;;;;11.40;77.00;;;;;;5091417;28;19908;-31
2023/03/20 13:52:17;;;;;;;;;;;11.30;77.30;;;;;;5090026;28;20368;-33
2023/03/20 13:54:54;;;;;;;;;;;11.30;77.50;;;;;;5091431;28;19999;-33
2023/03/20 13:57:38;;;;;;;;;;;11.30;77.70;;;;;;5091295;28;20428;-29
2023/03/20 14:00:17;;;;;;;;;;;11.30;77.80;;;;;;5091142;28;20002;-28
2023/03/20 14:02:52;;;;;;;;;;;11.40;77.80;;;;;;5089806;28;19908;-31
2023/03/20 14:05:21;;;;;;;;;;;11.40;77.80;;;;;;5091387;28;20393;-29
2023/03/20 14:07:48;;;;;;;;;;;11.40;78.10;;;;;;5091121;28;20019;-29
2023/03/20 14:10:16;;;;;;;;;;;11.40;78.10;;;;;;5091144;28;19909;-34
2023/03/20 14:12:42;;;;;;;;;;;11.40;78.00;;;;;;5091157;28;19912;-29
2023/03/20 14:15:10;;;;;;;;;;;11.40;78.10;;;;;;5091220;28;19915;-32
2023/03/20 14:17:42;;;;;;;;;;;11.40;78.20;;;;;;5091078;28;19909;-33
2023/03/20 14:20:31;;;;;;;;;;;11.40;78.30;;;;;;5091212;28;19919;-29
2023/03/20 14:22:56;;;;;;;;;;;11.30;78.30;;;;;;5085357;28;19908;-29
2023/03/20 14:25:23;;;;;;;;;;;11.30;78.30;;;;;;5091384;28;20007;-32
2023/03/20 14:27:56;;;;;;;;;;;11.30;78.40;;;;;;5091715;28;20011;-31
2023/03/20 14:30:31;;;;;;;;;;;11.30;78.40;;;;;;5091033;28;19909;-29
2023/03/20 14:33:16;;;;;;;;;;;11.40;78.60;;;;;;5090906;28;19966;-30